Rutland, VT

9:24 PM EDT on May 25, 2018 (GMT -0400)
Rutland State

Weather History for KRUT - November, 2011

Change the Weather History Date:

Wednesday, November 9, 2011

  Actual Average Record
Temperature  
Mean Temperature 57 °F -  
Max Temperature 70 °F - 71 °F (1975)
Min Temperature 43 °F - 12 °F (1971)
Degree Days  
Heating Degree Days 8    
Month to date heating degree days 195  
Since 1 July heating degree days 831  
Cooling Degree Days 0    
Month to date cooling degree days 0  
Year to date cooling degree days 348  
Growing Degree Days 6 (Base 50)    
Moisture  
Dew Point 42 °F    
Average Humidity 60    
Maximum Humidity 89    
Minimum Humidity 31    
Precipitation  
Precipitation 0.00 in - 1.32 in (2005)
Month to date precipitation 0.00  
Year to date precipitation 30.37  
Sea Level Pressure  
Sea Level Pressure 30.10 in    
Wind  
Wind Speed 9 mph (SSE)    
Max Wind Speed 16 mph    
Max Gust Speed 23 mph    
Visibility 10 miles    
Events      
T = Trace of Precipitation, MM = Missing Value Source: NWS Daily Summary

Daily Weather History Graph

Daily Weather History Graph

Search for Another Location

Airport or City:

Astronomy

Nov. 09, 2011 Rise Set
Actual Time 6:37 AM EST 4:33 PM EST
Civil Twilight 6:06 AM EST 5:03 PM EST
Nautical Twilight 5:32 AM EST 5:37 PM EST
Astronomical Twilight 4:59 AM EST 6:11 PM EST
Moon 3:43 PM EST (11/9) 5:30 AM EST (11/9)
Length of Visible Light 10h 56m
Length of Day
9h 55m
Waxing Gibbous, 99% of the Moon is Illuminated
Nov 9
Waxing Gibbous
Nov 10
Full
Nov 18
Last Quarter
Nov 25
New
Dec 2
First Quarter

Hourly Weather History & Observations

Time (EST) Temp. Windchill Dew Point Humidity Pressure Visibility Wind Dir Wind Speed Gust Speed Precip Events Conditions
12:15 AM 46.4 °F 41.5 °F 42.8 °F 87% 30.19 in 10.0 mi SE 10.4 mph - N/A   Clear
12:35 AM 46.4 °F 41.9 °F 42.8 °F 87% 30.19 in 10.0 mi ESE 9.2 mph - N/A   Clear
12:55 AM 46.4 °F 41.5 °F 42.8 °F 87% 30.19 in 10.0 mi SE 10.4 mph - N/A   Clear
1:15 AM 46.4 °F 41.5 °F 42.8 °F 87% 30.18 in 10.0 mi SE 10.4 mph - N/A   Clear
1:35 AM 46.4 °F 41.9 °F 42.8 °F 87% 30.18 in 10.0 mi SE 9.2 mph - N/A   Clear
1:55 AM 46.4 °F 41.9 °F 42.8 °F 87% 30.18 in 10.0 mi SE 9.2 mph - N/A   Clear
2:55 AM 46.4 °F 41.5 °F 42.8 °F 87% 30.18 in 10.0 mi SE 10.4 mph - N/A   Clear
3:15 AM 44.6 °F 39.2 °F 41.0 °F 87% 30.18 in 10.0 mi SE 10.4 mph - N/A   Clear
3:35 AM 46.4 °F 41.9 °F 42.8 °F 87% 30.17 in 10.0 mi SE 9.2 mph - N/A   Clear
3:55 AM 46.4 °F 41.9 °F 42.8 °F 87% 30.18 in 10.0 mi ESE 9.2 mph - N/A   Clear
4:15 AM 44.6 °F 40.7 °F 39.2 °F 81% 30.17 in 10.0 mi SE 6.9 mph - N/A   Clear
4:35 AM 42.8 °F 40.1 °F 39.2 °F 87% 30.17 in 10.0 mi SSE 4.6 mph - N/A   Clear
5:15 AM 46.4 °F 42.4 °F 42.8 °F 87% 30.17 in 10.0 mi SE 8.1 mph - N/A   Clear
5:35 AM 44.6 °F 41.4 °F 41.0 °F 87% 30.16 in 10.0 mi SE 5.8 mph - N/A   Clear
5:55 AM 44.6 °F 40.7 °F 39.2 °F 81% 30.17 in 10.0 mi SE 6.9 mph - N/A   Clear
6:15 AM 42.8 °F 40.1 °F 39.2 °F 87% 30.17 in 10.0 mi SSE 4.6 mph - N/A   Clear
6:35 AM 42.8 °F 38.0 °F 39.2 °F 87% 30.17 in 10.0 mi SE 8.1 mph - N/A   Clear
6:55 AM 44.6 °F 39.2 °F 41.0 °F 87% 30.17 in 9.0 mi SE 10.4 mph - N/A   Clear
7:15 AM 44.6 °F 38.4 °F 42.8 °F 93% 30.17 in 10.0 mi SE 12.7 mph - N/A   Clear
7:35 AM 46.4 °F 41.9 °F 42.8 °F 87% 30.17 in 10.0 mi SE 9.2 mph - N/A   Clear
8:15 AM 48.2 °F - 44.6 °F 87% 30.16 in 10.0 mi SE 4.6 mph - N/A   Clear
8:35 AM 50.0 °F - 44.6 °F 82% 30.16 in 10.0 mi NNE 3.5 mph - N/A   Clear
8:55 AM 48.2 °F - 44.6 °F 87% 30.16 in 10.0 mi North 4.6 mph - N/A   Clear
9:15 AM 51.8 °F - 44.6 °F 76% 30.15 in 10.0 mi Calm Calm - N/A   Clear
9:35 AM 53.6 °F - 46.4 °F 77% 30.15 in 10.0 mi Calm Calm - N/A   Clear
9:55 AM 55.4 °F - 46.4 °F 72% 30.14 in 10.0 mi Calm Calm - N/A   Clear
10:15 AM 57.2 °F - 48.2 °F 72% 30.14 in 10.0 mi Calm Calm - N/A   Clear
10:35 AM 60.8 °F - 48.2 °F 63% 30.13 in 10.0 mi SSW 3.5 mph - N/A   Clear
10:55 AM 64.4 °F - 48.2 °F 56% 30.12 in 10.0 mi Calm Calm - N/A   Clear
11:35 AM 66.2 °F - 46.4 °F 49% 30.10 in 10.0 mi SSW 6.9 mph - N/A   Clear
11:55 AM 68.0 °F - 42.8 °F 40% 30.09 in 10.0 mi South 8.1 mph - N/A   Clear
12:15 PM 69.8 °F - 39.2 °F 33% 30.08 in 10.0 mi SSW 8.1 mph - N/A   Clear
12:35 PM 69.8 °F - 37.4 °F 31% 30.07 in 10.0 mi SSW 6.9 mph - N/A   Clear
12:55 PM 69.8 °F - 37.4 °F 31% 30.06 in 10.0 mi SSW 9.2 mph - N/A   Clear
1:15 PM 69.8 °F - 37.4 °F 31% 30.05 in 10.0 mi South 8.1 mph - N/A   Clear
1:35 PM 69.8 °F - 39.2 °F 33% 30.04 in 10.0 mi South 10.4 mph - N/A   Clear
1:55 PM 69.8 °F - 39.2 °F 33% 30.03 in 10.0 mi SSE 10.4 mph - N/A   Clear
2:15 PM 69.8 °F - 39.2 °F 33% 30.03 in 10.0 mi SSW 10.4 mph - N/A   Clear
2:35 PM 69.8 °F - 39.2 °F 33% 30.03 in 10.0 mi South 9.2 mph - N/A   Clear
2:55 PM 69.8 °F - 37.4 °F 31% 30.02 in 10.0 mi South 8.1 mph - N/A   Clear
3:15 PM 69.8 °F - 37.4 °F 31% 30.02 in 10.0 mi South 10.4 mph - N/A   Clear
3:35 PM 68.0 °F - 37.4 °F 33% 30.01 in 10.0 mi South 9.2 mph - N/A   Clear
3:55 PM 66.2 °F - 37.4 °F 35% 30.01 in 10.0 mi South 9.2 mph - N/A   Clear
4:15 PM 66.2 °F - 33.8 °F 30% 30.01 in 10.0 mi SSE 6.9 mph - N/A   Clear
4:55 PM 60.8 °F - 44.6 °F 55% 30.01 in 10.0 mi SE 12.7 mph - N/A   Clear
5:15 PM 60.8 °F - 46.4 °F 59% 30.01 in 10.0 mi SE 12.7 mph - N/A   Clear
5:35 PM 60.8 °F - 46.4 °F 59% 30.02 in 10.0 mi ESE 11.5 mph - N/A   Clear
5:55 PM 60.8 °F - 46.4 °F 59% 30.02 in 10.0 mi ESE 11.5 mph - N/A   Clear
6:15 PM 59.0 °F - 46.4 °F 63% 30.02 in 10.0 mi SSE 9.2 mph - N/A   Clear
7:15 PM 57.2 °F - 44.6 °F 63% 30.00 in 10.0 mi SSE 11.5 mph 18.4 mph N/A   Clear
7:35 PM 57.2 °F - 42.8 °F 59% 30.00 in 10.0 mi SE 12.7 mph - N/A   Clear
7:55 PM 57.2 °F - 42.8 °F 59% 30.00 in 10.0 mi SE 13.8 mph - N/A   Clear
8:15 PM 55.4 °F - 41.0 °F 58% 29.99 in 10.0 mi SE 11.5 mph 17.3 mph N/A   Clear
8:55 PM 55.4 °F - 37.4 °F 51% 29.98 in 10.0 mi ESE 16.1 mph 20.7 mph N/A   Clear
9:35 PM 53.6 °F - 37.4 °F 54% 29.98 in 10.0 mi SSE 13.8 mph 19.6 mph N/A   Clear
9:55 PM 53.6 °F - 39.2 °F 58% 29.98 in 10.0 mi ESE 16.1 mph 23.0 mph N/A   Clear
10:15 PM 53.6 °F - 39.2 °F 58% 29.98 in 10.0 mi SSE 12.7 mph - N/A   Clear
10:35 PM 53.6 °F - 41.0 °F 62% 29.97 in 10.0 mi ESE 17.3 mph 21.9 mph N/A   Clear
10:55 PM 53.6 °F - 41.0 °F 62% 29.97 in 10.0 mi ESE 13.8 mph - N/A   Clear
11:15 PM 51.8 °F - 42.8 °F 71% 29.97 in 10.0 mi ESE 11.5 mph - N/A   Clear
11:35 PM 51.8 °F - 42.8 °F 71% 29.97 in 10.0 mi ESE 13.8 mph - N/A   Clear
11:55 PM 51.8 °F - 42.8 °F 71% 29.98 in 10.0 mi SE 11.5 mph - N/A   Clear